createdAt,value
2022-11-26T00:00:25.583Z,18.50
2022-11-26T00:03:27.226Z,21.13
2022-11-26T00:06:33.839Z,14.37
2022-11-26T00:09:35.390Z,18.23
2022-11-26T00:12:37.004Z,17.63
2022-11-26T00:15:38.532Z,16.43
2022-11-26T00:18:40.641Z,18.17
2022-11-26T00:21:42.500Z,15.17
2022-11-26T00:24:44.036Z,19.03
2022-11-26T00:27:45.757Z,16.20
2022-11-26T00:30:47.613Z,16.80
2022-11-26T00:33:49.246Z,16.83
2022-11-26T00:36:50.925Z,16.27
2022-11-26T00:39:52.899Z,14.37
2022-11-26T00:43:00.155Z,14.57
2022-11-26T00:46:03.273Z,19.23
2022-11-26T00:49:04.954Z,18.13
2022-11-26T00:52:14.937Z,20.93
2022-11-26T00:55:24.704Z,25.07
2022-11-26T00:58:27.953Z,19.43
2022-11-26T01:01:29.583Z,19.70
2022-11-26T01:04:31.244Z,20.27
2022-11-26T01:07:32.850Z,21.37
2022-11-26T01:10:34.538Z,16.63
2022-11-26T01:13:36.223Z,17.57
2022-11-26T01:16:42.253Z,15.47
2022-11-26T01:19:44.025Z,19.10
2022-11-26T01:22:45.583Z,16.27
2022-11-26T01:25:47.443Z,15.13
2022-11-26T01:28:49.253Z,17.27
2022-11-26T01:31:51.162Z,18.03
2022-11-26T01:34:52.761Z,16.23
2022-11-26T01:37:54.477Z,14.27
2022-11-26T01:41:13.331Z,15.10
2022-11-26T01:44:22.456Z,16.40
2022-11-26T01:47:25.959Z,19.90
2022-11-26T01:50:34.509Z,20.83
2022-11-26T01:53:47.567Z,17.87
2022-11-26T01:56:51.483Z,18.77
2022-11-26T01:59:54.771Z,17.10
2022-11-26T02:02:56.555Z,17.13
2022-11-26T02:06:01.435Z,13.83
2022-11-26T02:09:04.783Z,18.60
2022-11-26T02:12:06.412Z,17.73
2022-11-26T02:15:08.541Z,18.13
2022-11-26T02:18:10.217Z,16.17
2022-11-26T02:21:20.058Z,16.57
2022-11-26T02:24:28.363Z,17.20
2022-11-26T02:27:42.204Z,18.53
2022-11-26T02:30:49.721Z,19.57
2022-11-26T02:33:54.204Z,19.67
2022-11-26T02:37:08.231Z,18.73
2022-11-26T02:40:09.979Z,15.30
2022-11-26T02:43:12.371Z,15.13
2022-11-26T02:46:18.243Z,18.63
2022-11-26T02:49:21.535Z,19.80
2022-11-26T02:52:23.600Z,16.17
2022-11-26T02:55:27.244Z,15.33
2022-11-26T02:58:29.273Z,16.73
2022-11-26T03:01:37.054Z,16.63
2022-11-26T03:04:42.201Z,20.67
2022-11-26T03:07:46.454Z,39.53
2022-11-26T03:10:48.390Z,19.50
2022-11-26T03:13:50.159Z,20.67
2022-11-26T03:16:51.802Z,18.43
2022-11-26T03:19:53.461Z,15.57
2022-11-26T03:22:54.981Z,19.20
2022-11-26T03:25:56.566Z,15.63
2022-11-26T03:28:58.140Z,26.53
2022-11-26T03:31:59.801Z,18.60
2022-11-26T03:35:01.620Z,17.07
2022-11-26T03:38:03.142Z,16.97
2022-11-26T03:41:04.781Z,19.87
2022-11-26T03:44:06.366Z,20.30
2022-11-26T03:47:07.996Z,22.00
2022-11-26T03:50:09.767Z,14.53
2022-11-26T03:53:11.364Z,18.37
2022-11-26T03:56:13.229Z,19.97
2022-11-26T03:59:14.852Z,17.27
2022-11-26T04:02:16.394Z,26.90
2022-11-26T04:05:17.948Z,22.17
2022-11-26T04:08:19.523Z,17.53
2022-11-26T04:11:21.117Z,18.77
2022-11-26T04:14:22.722Z,18.07
2022-11-26T04:17:24.311Z,19.27
2022-11-26T04:20:25.966Z,17.50
2022-11-26T04:23:27.811Z,19.33
2022-11-26T04:26:29.445Z,22.83
2022-11-26T04:29:31.006Z,18.47
2022-11-26T04:32:32.559Z,19.30
2022-11-26T04:35:34.155Z,17.80
2022-11-26T04:38:36.818Z,18.93
2022-11-26T04:41:38.557Z,15.67
2022-11-26T04:44:40.261Z,14.73
2022-11-26T04:47:43.206Z,15.87
2022-11-26T04:50:44.967Z,13.83
2022-11-26T04:53:46.582Z,14.03
2022-11-26T04:56:48.327Z,15.23
2022-11-26T04:59:49.960Z,12.57
2022-11-26T05:02:51.582Z,13.37
2022-11-26T05:05:54.284Z,16.03
2022-11-26T05:08:55.888Z,15.53
2022-11-26T05:11:57.628Z,13.00
2022-11-26T05:14:59.333Z,18.23
2022-11-26T05:18:01.024Z,15.87
2022-11-26T05:21:04.617Z,16.40
2022-11-26T05:24:06.307Z,16.97
2022-11-26T05:27:07.985Z,19.33
2022-11-26T05:30:09.879Z,18.33
2022-11-26T05:33:11.459Z,18.13
2022-11-26T05:36:13.020Z,20.50
2022-11-26T05:39:14.651Z,25.20
2022-11-26T05:42:16.286Z,33.80
2022-11-26T05:45:17.988Z,29.93
2022-11-26T05:48:19.625Z,21.50
2022-11-26T05:51:21.330Z,20.33
2022-11-26T05:54:22.938Z,15.33
2022-11-26T05:57:24.492Z,18.33
2022-11-26T06:00:26.587Z,20.97
2022-11-26T06:03:28.337Z,21.60
2022-11-26T06:06:30.340Z,15.97
2022-11-26T06:09:32.167Z,19.83
2022-11-26T06:12:33.716Z,16.87
2022-11-26T06:15:35.314Z,15.33
2022-11-26T06:18:37.746Z,19.60
2022-11-26T06:21:39.336Z,14.87
2022-11-26T06:24:40.952Z,21.50
2022-11-26T06:27:42.621Z,18.13
2022-11-26T06:30:45.231Z,18.47
2022-11-26T06:33:46.919Z,24.30
2022-11-26T06:36:48.479Z,29.30
2022-11-26T06:39:50.131Z,28.03
2022-11-26T06:42:52.598Z,24.90
2022-11-26T06:45:54.459Z,23.93
2022-11-26T06:49:00.570Z,28.37
2022-11-26T06:52:02.129Z,34.07
2022-11-26T06:55:04.030Z,31.17
2022-11-26T06:58:05.698Z,26.60
2022-11-26T07:01:10.864Z,29.27
2022-11-26T07:04:13.000Z,33.03
2022-11-26T07:07:14.622Z,37.63
2022-11-26T07:10:16.331Z,32.00
2022-11-26T07:13:17.895Z,31.67
2022-11-26T07:16:19.641Z,35.07
2022-11-26T07:19:21.325Z,34.87
2022-11-26T07:22:22.960Z,27.60
2022-11-26T07:25:24.592Z,25.40
2022-11-26T07:28:26.205Z,20.33
2022-11-26T07:31:27.827Z,28.93
2022-11-26T07:34:29.370Z,22.53
2022-11-26T07:37:32.343Z,24.93
2022-11-26T07:40:33.951Z,27.10
2022-11-26T07:43:36.484Z,20.30
2022-11-26T07:46:38.136Z,19.47
2022-11-26T07:49:39.752Z,21.57
2022-11-26T07:52:41.400Z,15.00
2022-11-26T07:55:42.953Z,16.97
2022-11-26T07:58:44.718Z,16.37
2022-11-26T08:01:46.341Z,14.87
2022-11-26T08:04:47.972Z,12.90
2022-11-26T08:07:49.635Z,14.53
2022-11-26T08:10:51.245Z,16.37
2022-11-26T08:13:54.177Z,15.23
2022-11-26T08:16:55.986Z,16.07
2022-11-26T08:19:57.843Z,22.23
2022-11-26T08:22:59.400Z,35.83
2022-11-26T08:26:23.060Z,16.13
2022-11-26T08:29:27.230Z,20.33
2022-11-26T08:32:28.777Z,11.30
2022-11-26T08:35:51.143Z,9.93
2022-11-26T08:38:51.877Z,6.43
2022-11-26T08:41:54.009Z,8.90
2022-11-26T08:44:55.808Z,33.53
2022-11-26T08:47:57.527Z,14.67
2022-11-26T08:51:02.985Z,12.87
2022-11-26T08:54:04.965Z,19.57
2022-11-26T08:57:06.604Z,10.97
2022-11-26T09:00:08.808Z,15.87
2022-11-26T09:03:10.544Z,11.20
2022-11-26T09:06:12.144Z,5.50
2022-11-26T09:09:14.149Z,4.80
2022-11-26T09:12:16.126Z,6.23
2022-11-26T09:15:18.085Z,8.60
2022-11-26T09:18:19.624Z,6.27
2022-11-26T09:21:21.712Z,6.03
2022-11-26T09:24:23.439Z,5.83
2022-11-26T09:27:25.063Z,5.90
2022-11-26T09:30:26.674Z,5.70
2022-11-26T09:33:28.913Z,5.03
2022-11-26T09:36:36.364Z,4.00
2022-11-26T09:39:40.784Z,4.47
2022-11-26T09:42:52.267Z,6.40
2022-11-26T09:46:04.745Z,3.10
2022-11-26T09:49:12.939Z,4.40
2022-11-26T09:52:19.811Z,11.90
2022-11-26T09:55:30.191Z,4.00
2022-11-26T09:58:44.202Z,6.80
2022-11-26T10:01:45.892Z,3.60
2022-11-26T10:08:20.044Z,7.53
2022-11-26T10:11:40.686Z,7.83
2022-11-26T10:15:09.137Z,4.87
2022-11-26T10:18:19.957Z,4.87
2022-11-26T10:21:57.078Z,4.90
2022-11-26T10:24:50.423Z,3.73
2022-11-26T10:27:54.319Z,5.50
2022-11-26T10:30:58.155Z,4.67
2022-11-26T10:34:04.982Z,7.43
2022-11-26T10:37:06.808Z,5.80
2022-11-26T10:40:26.761Z,4.27
2022-11-26T10:43:28.508Z,7.90
2022-11-26T10:46:32.055Z,4.37
2022-11-26T10:49:33.946Z,4.43
2022-11-26T10:52:38.090Z,7.33
2022-11-26T10:55:42.157Z,2.97
2022-11-26T10:58:44.873Z,3.33
2022-11-26T11:01:47.913Z,6.83
2022-11-26T11:04:53.085Z,3.87
2022-11-26T11:07:55.023Z,6.87
2022-11-26T11:10:58.056Z,4.23
2022-11-26T11:13:59.780Z,4.03
2022-11-26T11:17:01.421Z,3.10
2022-11-26T11:20:15.236Z,3.67
2022-11-26T11:23:19.649Z,4.53
2022-11-26T11:26:23.558Z,5.50
2022-11-26T11:29:26.697Z,5.60
2022-11-26T11:32:42.243Z,6.23
2022-11-26T11:35:43.885Z,3.87
2022-11-26T11:38:56.263Z,5.40
2022-11-26T11:42:02.014Z,3.27
2022-11-26T11:45:04.603Z,3.53
2022-11-26T11:48:12.462Z,3.93
2022-11-26T11:51:14.204Z,4.40
2022-11-26T11:54:22.291Z,6.03
2022-11-26T11:57:40.761Z,5.70
2022-11-26T12:00:51.363Z,4.80
2022-11-26T12:04:00.423Z,5.27
2022-11-26T12:07:20.866Z,4.27
2022-11-26T12:10:22.441Z,4.77
2022-11-26T12:13:25.821Z,4.33
2022-11-26T12:16:29.191Z,7.17
2022-11-26T12:19:33.814Z,7.27
2022-11-26T12:22:42.452Z,5.40
2022-11-26T12:25:47.186Z,6.53
2022-11-26T12:28:57.749Z,10.17
2022-11-26T12:32:25.586Z,6.57
2022-11-26T12:35:27.172Z,9.60
2022-11-26T12:38:31.953Z,5.17
2022-11-26T12:41:43.405Z,3.50
2022-11-26T12:44:48.881Z,6.27
2022-11-26T12:47:53.359Z,6.90
2022-11-26T12:50:56.275Z,5.53
2022-11-26T12:54:05.357Z,8.20
2022-11-26T12:57:15.910Z,4.93
2022-11-26T13:00:30.098Z,7.50
2022-11-26T13:03:34.661Z,3.47
2022-11-26T13:06:50.358Z,3.30
2022-11-26T13:09:59.252Z,4.37
2022-11-26T13:13:03.917Z,11.00
2022-11-26T13:16:14.724Z,4.83
2022-11-26T13:19:22.863Z,15.73
2022-11-26T13:22:30.659Z,16.03
2022-11-26T13:25:42.671Z,11.70
2022-11-26T13:28:50.375Z,7.83
2022-11-26T13:31:52.013Z,5.40
2022-11-26T13:34:56.704Z,4.70
2022-11-26T13:38:01.104Z,3.67
2022-11-26T13:41:08.765Z,4.07
2022-11-26T13:44:16.139Z,5.13
2022-11-26T13:47:26.597Z,6.83
2022-11-26T13:50:34.443Z,5.10
2022-11-26T13:53:36.071Z,6.33
2022-11-26T13:56:38.357Z,6.60
2022-11-26T13:59:50.243Z,8.87
2022-11-26T14:02:52.742Z,13.77
2022-11-26T14:05:57.353Z,20.73
2022-11-26T14:08:59.041Z,17.40
2022-11-26T14:12:00.870Z,16.00
2022-11-26T14:15:02.534Z,14.40
2022-11-26T14:18:04.187Z,12.73
2022-11-26T14:21:12.658Z,17.77
2022-11-26T14:24:34.195Z,20.60
2022-11-26T14:27:39.413Z,13.87
2022-11-26T14:30:41.099Z,13.17
2022-11-26T14:33:45.274Z,17.73
2022-11-26T14:36:55.356Z,15.93
2022-11-26T14:40:15.495Z,26.23
2022-11-26T14:43:20.101Z,29.77
2022-11-26T14:46:21.843Z,17.33
2022-11-26T14:49:38.733Z,16.53
2022-11-26T14:52:41.260Z,15.23
2022-11-26T14:55:44.169Z,16.23
2022-11-26T14:58:51.584Z,13.30
2022-11-26T15:01:53.328Z,11.50
2022-11-26T15:05:02.223Z,21.47
2022-11-26T15:08:03.811Z,48.00
2022-11-26T15:11:06.710Z,114.10
2022-11-26T15:14:16.112Z,64.00
2022-11-26T15:17:19.086Z,33.60
2022-11-26T15:20:20.981Z,23.43
2022-11-26T15:23:29.711Z,24.80
2022-11-26T15:26:34.908Z,28.17
2022-11-26T15:29:37.201Z,28.10
2022-11-26T15:32:38.764Z,43.60
2022-11-26T15:35:41.233Z,35.50
2022-11-26T15:39:03.207Z,27.57
2022-11-26T15:42:06.810Z,43.60
2022-11-26T15:45:20.240Z,52.50
2022-11-26T15:48:50.044Z,63.10
2022-11-26T15:51:51.269Z,58.50
2022-11-26T15:55:16.588Z,48.33
2022-11-26T15:58:19.598Z,262.50
2022-11-26T16:01:23.044Z,45.67
2022-11-26T16:04:44.947Z,113.57
2022-11-26T16:08:18.938Z,184.77
2022-11-26T16:11:21.110Z,135.37
2022-11-26T16:14:32.430Z,59.00
2022-11-26T16:17:34.300Z,58.27
2022-11-26T16:20:36.180Z,64.67
2022-11-26T16:23:37.765Z,65.43
2022-11-26T16:26:57.881Z,63.90
2022-11-26T16:30:01.416Z,63.13
2022-11-26T16:33:03.719Z,69.40
2022-11-26T16:36:21.907Z,88.47
2022-11-26T16:39:27.411Z,114.33
2022-11-26T16:42:32.591Z,81.80
2022-11-26T16:45:34.178Z,60.83
2022-11-26T16:48:35.915Z,57.47
2022-11-26T16:51:37.479Z,64.43
2022-11-26T16:54:39.349Z,68.30
2022-11-26T16:57:41.817Z,71.30
2022-11-26T17:00:44.791Z,75.03
2022-11-26T17:03:46.508Z,72.37
2022-11-26T17:06:48.222Z,82.93
2022-11-26T17:09:50.286Z,66.20
2022-11-26T17:12:52.302Z,68.37
2022-11-26T17:15:54.093Z,68.63
2022-11-26T17:18:55.771Z,77.90
2022-11-26T17:21:57.343Z,75.17
2022-11-26T17:24:59.007Z,84.20
2022-11-26T17:28:00.560Z,73.43
2022-11-26T17:31:02.494Z,72.37
2022-11-26T17:34:04.124Z,70.40
2022-11-26T17:37:06.045Z,68.97
2022-11-26T17:40:15.179Z,58.07
2022-11-26T17:43:17.128Z,91.23
2022-11-26T17:46:20.365Z,125.07
2022-11-26T17:49:22.071Z,103.73
2022-11-26T17:52:23.775Z,102.97
2022-11-26T17:55:26.500Z,60.67
2022-11-26T17:58:28.112Z,60.43
2022-11-26T18:01:29.898Z,45.50
2022-11-26T18:04:31.551Z,47.30
2022-11-26T18:07:33.502Z,52.57
2022-11-26T18:10:35.140Z,48.27
2022-11-26T18:13:36.784Z,43.07
2022-11-26T18:16:38.711Z,37.97
2022-11-26T18:19:43.569Z,48.73
2022-11-26T18:22:46.876Z,48.80
2022-11-26T18:25:48.726Z,46.37
2022-11-26T18:28:50.345Z,49.23
2022-11-26T18:31:52.068Z,70.33
2022-11-26T18:34:53.723Z,50.40
2022-11-26T18:37:55.359Z,55.37
2022-11-26T18:41:04.961Z,45.90
2022-11-26T18:44:06.659Z,41.17
2022-11-26T18:47:09.501Z,42.33
2022-11-26T18:50:11.602Z,43.17
2022-11-26T18:53:13.797Z,52.00
2022-11-26T18:56:17.214Z,53.37
2022-11-26T18:59:18.837Z,71.40
2022-11-26T19:02:20.531Z,61.53
2022-11-26T19:05:22.193Z,52.63
2022-11-26T19:08:23.859Z,47.37
2022-11-26T19:11:26.571Z,54.73
2022-11-26T19:14:28.154Z,49.93
2022-11-26T19:17:29.803Z,45.67
2022-11-26T19:20:31.427Z,42.33
2022-11-26T19:23:34.385Z,44.43
2022-11-26T19:26:36.475Z,43.33
2022-11-26T19:29:38.326Z,36.67
2022-11-26T19:32:40.138Z,37.33
2022-11-26T19:35:41.693Z,42.20
2022-11-26T19:38:43.659Z,42.37
2022-11-26T19:41:45.218Z,50.23
2022-11-26T19:44:46.859Z,44.73
2022-11-26T19:47:48.892Z,32.77
2022-11-26T19:50:54.404Z,40.77
2022-11-26T19:53:56.625Z,39.50
2022-11-26T19:56:58.204Z,42.87
2022-11-26T20:00:00.044Z,43.27
2022-11-26T20:03:01.713Z,45.93
2022-11-26T20:06:07.773Z,50.73
2022-11-26T20:09:11.484Z,36.77
2022-11-26T20:12:13.024Z,35.87
2022-11-26T20:15:14.615Z,37.60
2022-11-26T20:18:16.370Z,41.77
2022-11-26T20:21:22.435Z,36.43
2022-11-26T20:24:24.027Z,39.33
2022-11-26T20:27:25.608Z,35.97
2022-11-26T20:30:27.827Z,32.53
2022-11-26T20:33:29.451Z,35.23
2022-11-26T20:36:31.252Z,36.70
2022-11-26T20:39:32.901Z,36.07
2022-11-26T20:42:34.556Z,46.27
2022-11-26T20:45:36.677Z,43.27
2022-11-26T20:48:39.245Z,34.83
2022-11-26T20:51:40.972Z,31.10
2022-11-26T20:54:42.644Z,39.37
2022-11-26T20:57:44.257Z,35.00
2022-11-26T21:00:46.465Z,26.53
2022-11-26T21:03:48.886Z,29.87
2022-11-26T21:06:50.551Z,26.93
2022-11-26T21:09:56.398Z,32.37
2022-11-26T21:12:58.093Z,27.63
2022-11-26T21:16:04.059Z,23.17
2022-11-26T21:19:05.714Z,26.77
2022-11-26T21:22:07.585Z,24.73
2022-11-26T21:25:09.471Z,29.33
2022-11-26T21:28:11.782Z,35.70
2022-11-26T21:31:14.569Z,40.03
2022-11-26T21:34:16.154Z,34.73
2022-11-26T21:37:18.901Z,35.53
2022-11-26T21:40:20.580Z,37.40
2022-11-26T21:43:22.132Z,31.80
2022-11-26T21:46:27.291Z,36.53
2022-11-26T21:49:30.914Z,32.50
2022-11-26T21:52:32.548Z,31.53
2022-11-26T21:55:34.132Z,29.97
2022-11-26T21:58:37.084Z,25.53
2022-11-26T22:01:38.869Z,28.07
2022-11-26T22:04:40.480Z,30.67
2022-11-26T22:07:42.308Z,26.60
2022-11-26T22:10:44.078Z,27.43
2022-11-26T22:13:46.020Z,25.37
2022-11-26T22:16:50.558Z,28.07
2022-11-26T22:19:52.206Z,27.37
2022-11-26T22:22:53.842Z,26.57
2022-11-26T22:25:55.397Z,25.20
2022-11-26T22:28:57.000Z,21.73
2022-11-26T22:31:58.609Z,28.83
2022-11-26T22:35:00.185Z,21.27
2022-11-26T22:38:01.946Z,21.80
2022-11-26T22:41:04.534Z,23.33
2022-11-26T22:44:06.528Z,21.60
2022-11-26T22:47:08.052Z,24.17
2022-11-26T22:50:09.830Z,19.90
2022-11-26T22:53:11.427Z,21.63
2022-11-26T22:56:13.011Z,23.63
2022-11-26T22:59:14.999Z,18.10
2022-11-26T23:02:16.666Z,20.33
2022-11-26T23:05:18.309Z,17.20
2022-11-26T23:08:20.454Z,18.73
2022-11-26T23:11:29.514Z,20.57
2022-11-26T23:14:31.097Z,20.13
2022-11-26T23:17:32.690Z,17.30
2022-11-26T23:20:34.601Z,16.87
2022-11-26T23:23:37.039Z,15.50
2022-11-26T23:26:39.398Z,16.67
2022-11-26T23:29:41.175Z,16.57
2022-11-26T23:32:43.004Z,15.43
2022-11-26T23:35:44.662Z,17.67
2022-11-26T23:38:46.399Z,19.30
2022-11-26T23:41:48.050Z,18.50
2022-11-26T23:44:49.592Z,20.73
2022-11-26T23:47:51.184Z,21.40
2022-11-26T23:50:52.876Z,19.40
2022-11-26T23:53:54.563Z,15.70
2022-11-26T23:56:56.119Z,26.57
2022-11-26T23:59:57.852Z,20.30
